createdAt,value
2023-05-23T00:01:46.679Z,8.53
2023-05-23T00:04:18.985Z,7.52
2023-05-23T00:06:50.563Z,7.60
2023-05-23T00:09:20.654Z,8.43
2023-05-23T00:11:50.557Z,8.07
2023-05-23T00:14:20.164Z,7.60
2023-05-23T00:16:50.082Z,7.83
2023-05-23T00:19:19.999Z,8.17
2023-05-23T00:21:50.822Z,7.33
2023-05-23T00:24:21.035Z,8.10
2023-05-23T00:26:51.421Z,7.60
2023-05-23T00:29:21.968Z,7.28
2023-05-23T00:31:52.042Z,6.93
2023-05-23T00:34:25.332Z,6.58
2023-05-23T00:36:55.214Z,6.00
2023-05-23T00:39:25.037Z,6.83
2023-05-23T00:41:54.882Z,7.40
2023-05-23T00:44:25.035Z,7.25
2023-05-23T00:46:57.382Z,6.70
2023-05-23T00:49:28.513Z,7.67
2023-05-23T00:51:58.438Z,6.87
2023-05-23T00:54:34.215Z,7.12
2023-05-23T00:57:04.305Z,6.30
2023-05-23T00:59:37.390Z,6.67
2023-05-23T01:02:07.667Z,7.63
2023-05-23T01:04:37.819Z,7.03
2023-05-23T01:07:07.726Z,8.27
2023-05-23T01:09:37.742Z,8.00
2023-05-23T01:12:28.334Z,7.60
2023-05-23T01:15:13.443Z,8.60
2023-05-23T01:18:14.482Z,8.20
2023-05-23T01:20:50.162Z,7.63
2023-05-23T01:23:44.012Z,7.53
2023-05-23T01:26:34.965Z,7.45
2023-05-23T01:29:10.945Z,8.40
2023-05-23T01:31:47.019Z,8.15
2023-05-23T01:34:19.077Z,6.92
2023-05-23T01:36:56.440Z,6.73
2023-05-23T01:39:26.303Z,6.67
2023-05-23T01:41:56.305Z,6.33
2023-05-23T01:44:26.413Z,7.00
2023-05-23T01:46:57.499Z,7.70
2023-05-23T01:49:28.494Z,7.73
2023-05-23T01:52:01.855Z,8.40
2023-05-23T01:54:33.333Z,8.17
2023-05-23T01:57:03.906Z,7.92
2023-05-23T01:59:34.580Z,8.37
2023-05-23T02:02:04.452Z,8.33
2023-05-23T02:04:34.798Z,8.23
2023-05-23T02:07:05.000Z,7.80
2023-05-23T02:09:35.394Z,7.62
2023-05-23T02:12:05.474Z,7.50
2023-05-23T02:14:37.486Z,7.62
2023-05-23T02:17:07.584Z,6.87
2023-05-23T02:19:38.613Z,7.05
2023-05-23T02:22:08.731Z,8.05
2023-05-23T02:24:38.882Z,7.75
2023-05-23T02:27:09.092Z,7.95
2023-05-23T02:29:39.330Z,7.17
2023-05-23T02:32:09.362Z,7.33
2023-05-23T02:34:40.288Z,7.08
2023-05-23T02:37:10.513Z,6.78
2023-05-23T02:39:41.084Z,6.97
2023-05-23T02:42:11.082Z,7.70
2023-05-23T02:44:41.378Z,7.12
2023-05-23T02:47:11.232Z,7.70
2023-05-23T02:49:41.069Z,7.37
2023-05-23T02:52:10.690Z,7.65
2023-05-23T02:54:40.959Z,8.20
2023-05-23T02:57:10.984Z,7.27
2023-05-23T02:59:42.067Z,6.87
2023-05-23T03:02:13.482Z,7.63
2023-05-23T03:04:43.459Z,7.80
2023-05-23T03:07:24.492Z,7.63
2023-05-23T03:09:46.689Z,9.27
2023-05-23T03:12:18.339Z,8.55
2023-05-23T03:14:48.217Z,6.73
2023-05-23T03:17:18.326Z,8.37
2023-05-23T03:19:48.494Z,7.25
2023-05-23T03:22:18.520Z,7.50
2023-05-23T03:24:48.718Z,7.15
2023-05-23T03:27:18.585Z,8.37
2023-05-23T03:29:48.751Z,8.28
2023-05-23T03:32:18.682Z,7.13
2023-05-23T03:34:49.029Z,7.42
2023-05-23T03:37:18.694Z,6.95
2023-05-23T03:39:48.569Z,7.73
2023-05-23T03:42:19.751Z,6.98
2023-05-23T03:44:49.916Z,6.72
2023-05-23T03:47:19.849Z,6.87
2023-05-23T03:49:51.235Z,7.42
2023-05-23T03:52:21.179Z,8.17
2023-05-23T03:54:51.747Z,6.83
2023-05-23T03:57:22.780Z,7.07
2023-05-23T03:59:53.257Z,7.03
2023-05-23T04:02:23.525Z,7.03
2023-05-23T04:04:54.229Z,7.47
2023-05-23T04:07:25.768Z,7.53
2023-05-23T04:09:56.180Z,6.80
2023-05-23T04:12:26.137Z,7.78
2023-05-23T04:14:56.050Z,7.10
2023-05-23T04:17:28.138Z,7.13
2023-05-23T04:19:58.608Z,6.85
2023-05-23T04:22:28.365Z,8.07
2023-05-23T04:24:58.349Z,7.87
2023-05-23T04:27:30.872Z,7.07
2023-05-23T04:30:01.255Z,8.18
2023-05-23T04:32:32.881Z,8.15
2023-05-23T04:35:04.289Z,8.08
2023-05-23T04:37:35.272Z,7.83
2023-05-23T04:40:08.896Z,8.80
2023-05-23T04:42:42.348Z,8.80
2023-05-23T04:45:13.808Z,9.60
2023-05-23T04:48:00.487Z,9.03
2023-05-23T04:50:40.839Z,9.20
2023-05-23T04:53:10.946Z,9.40
2023-05-23T04:55:41.172Z,10.00
2023-05-23T04:58:13.055Z,9.77
2023-05-23T05:00:44.156Z,8.65
2023-05-23T05:03:16.607Z,10.17
2023-05-23T05:05:47.440Z,9.50
2023-05-23T05:08:20.001Z,9.18
2023-05-23T05:10:49.690Z,9.20
2023-05-23T05:13:21.663Z,9.05
2023-05-23T05:15:53.415Z,8.63
2023-05-23T05:18:23.411Z,8.33
2023-05-23T05:20:53.629Z,8.87
2023-05-23T05:23:31.694Z,8.70
2023-05-23T05:26:02.120Z,9.47
2023-05-23T05:28:32.263Z,7.45
2023-05-23T05:31:03.791Z,6.87
2023-05-23T05:33:36.326Z,6.30
2023-05-23T05:36:08.762Z,6.75
2023-05-23T05:38:38.587Z,6.50
2023-05-23T05:41:09.480Z,6.23
2023-05-23T05:43:41.303Z,7.43
2023-05-23T05:46:12.780Z,5.87
2023-05-23T05:48:43.025Z,7.17
2023-05-23T05:51:14.669Z,6.30
2023-05-23T05:53:45.052Z,6.40
2023-05-23T05:56:16.635Z,4.97
2023-05-23T05:58:46.604Z,5.60
2023-05-23T06:01:18.313Z,5.30
2023-05-23T06:03:48.644Z,5.03
2023-05-23T06:06:19.884Z,5.00
2023-05-23T06:08:50.395Z,5.70
2023-05-23T06:11:20.231Z,4.83
2023-05-23T06:13:50.385Z,4.78
2023-05-23T06:16:21.022Z,5.33
2023-05-23T06:18:51.437Z,6.22
2023-05-23T06:21:22.243Z,4.80
2023-05-23T06:23:52.629Z,5.58
2023-05-23T06:26:23.146Z,5.47
2023-05-23T06:28:54.846Z,6.22
2023-05-23T06:31:24.700Z,4.67
2023-05-23T06:33:54.629Z,5.00
2023-05-23T06:36:24.551Z,4.87
2023-05-23T06:38:54.749Z,4.67
2023-05-23T06:41:24.862Z,4.70
2023-05-23T06:43:55.345Z,4.33
2023-05-23T06:46:26.609Z,4.67
2023-05-23T06:49:13.265Z,4.60
2023-05-23T06:51:28.584Z,4.37
2023-05-23T06:53:58.980Z,4.95
2023-05-23T06:56:28.894Z,4.73
2023-05-23T06:59:00.786Z,5.00
2023-05-23T07:01:30.915Z,4.73
2023-05-23T07:04:01.370Z,5.25
2023-05-23T07:06:32.675Z,5.40
2023-05-23T07:09:04.166Z,4.97
2023-05-23T07:11:35.332Z,5.30
2023-05-23T07:14:07.724Z,5.20
2023-05-23T07:16:39.663Z,5.65
2023-05-23T07:19:10.285Z,5.80
2023-05-23T07:21:41.886Z,5.90
2023-05-23T07:24:12.011Z,5.13
2023-05-23T07:26:41.935Z,5.87
2023-05-23T07:29:12.239Z,5.37
2023-05-23T07:31:42.335Z,5.47
2023-05-23T07:34:13.044Z,6.10
2023-05-23T07:36:44.593Z,5.37
2023-05-23T07:39:15.485Z,5.50
2023-05-23T07:41:45.597Z,5.78
2023-05-23T07:44:15.779Z,5.22
2023-05-23T07:46:45.395Z,5.70
2023-05-23T07:49:15.639Z,5.87
2023-05-23T07:51:45.560Z,4.70
2023-05-23T07:54:16.765Z,5.30
2023-05-23T07:56:47.184Z,5.27
2023-05-23T07:59:17.959Z,5.35
2023-05-23T08:01:49.956Z,4.87
2023-05-23T08:04:21.911Z,5.33
2023-05-23T08:09:28.769Z,5.17
2023-05-23T08:11:59.214Z,4.63
2023-05-23T08:14:38.545Z,4.50
2023-05-23T08:17:10.372Z,4.90
2023-05-23T08:19:40.659Z,4.47
2023-05-23T08:22:10.763Z,5.90
2023-05-23T08:24:41.345Z,5.95
2023-05-23T08:27:11.658Z,5.10
2023-05-23T08:29:42.100Z,3.37
2023-05-23T08:32:12.267Z,2.93
2023-05-23T08:34:42.387Z,2.75
2023-05-23T08:37:12.242Z,2.53
2023-05-23T08:39:42.251Z,2.40
2023-05-23T08:42:22.755Z,2.47
2023-05-23T08:44:53.086Z,3.00
2023-05-23T08:47:24.283Z,2.37
2023-05-23T08:49:57.867Z,2.13
2023-05-23T08:52:30.924Z,2.30
2023-05-23T08:55:02.777Z,2.60
2023-05-23T08:57:33.023Z,2.80
2023-05-23T09:00:06.790Z,2.10
2023-05-23T09:02:37.879Z,2.40
2023-05-23T09:05:09.852Z,2.30
2023-05-23T09:07:40.593Z,2.80
2023-05-23T09:10:12.272Z,2.50
2023-05-23T09:12:43.554Z,3.10
2023-05-23T09:15:14.725Z,2.93
2023-05-23T09:17:45.832Z,2.33
2023-05-23T09:20:18.994Z,3.10
2023-05-23T09:22:53.185Z,3.23
2023-05-23T09:25:23.696Z,2.42
2023-05-23T09:27:56.195Z,2.72
2023-05-23T09:30:26.753Z,2.80
2023-05-23T09:33:05.794Z,2.53
2023-05-23T09:35:35.578Z,2.73
2023-05-23T09:38:07.297Z,3.37
2023-05-23T09:40:36.862Z,2.13
2023-05-23T09:43:07.790Z,2.97
2023-05-23T09:45:37.762Z,2.87
2023-05-23T09:48:11.853Z,2.60
2023-05-23T09:50:42.015Z,2.90
2023-05-23T09:53:12.677Z,2.70
2023-05-23T09:55:42.617Z,2.50
2023-05-23T09:58:13.378Z,3.17
2023-05-23T10:00:44.735Z,2.90
2023-05-23T10:03:17.340Z,2.70
2023-05-23T10:05:49.404Z,2.67
2023-05-23T10:08:31.125Z,2.85
2023-05-23T10:11:18.510Z,2.60
2023-05-23T10:13:51.673Z,2.97
2023-05-23T10:16:31.355Z,2.57
2023-05-23T10:19:04.619Z,3.08
2023-05-23T10:21:39.963Z,3.10
2023-05-23T10:24:09.994Z,2.47
2023-05-23T10:26:39.888Z,2.93
2023-05-23T10:29:09.736Z,3.33
2023-05-23T10:31:41.055Z,3.20
2023-05-23T10:34:30.820Z,2.08
2023-05-23T10:37:05.431Z,2.83
2023-05-23T10:40:02.337Z,3.07
2023-05-23T10:42:52.480Z,2.45
2023-05-23T10:45:24.256Z,3.27
2023-05-23T10:47:54.766Z,2.70
2023-05-23T10:50:35.413Z,2.70
2023-05-23T10:53:07.026Z,2.83
2023-05-23T10:55:38.231Z,3.00
2023-05-23T10:58:20.561Z,2.63
2023-05-23T11:01:02.895Z,3.00
2023-05-23T11:03:40.610Z,3.23
2023-05-23T11:06:14.490Z,3.38
2023-05-23T11:08:48.913Z,3.23
2023-05-23T11:11:17.472Z,3.20
2023-05-23T11:14:00.485Z,2.97
2023-05-23T11:16:42.190Z,2.83
2023-05-23T11:19:24.742Z,3.03
2023-05-23T11:21:57.854Z,2.67
2023-05-23T11:27:35.403Z,2.77
2023-05-23T11:30:10.714Z,2.97
2023-05-23T11:32:41.237Z,3.30
2023-05-23T11:35:12.452Z,2.90
2023-05-23T11:37:42.448Z,3.20
2023-05-23T11:40:38.586Z,3.08
2023-05-23T11:43:11.115Z,2.90
2023-05-23T11:45:41.944Z,2.83
2023-05-23T11:48:13.362Z,2.70
2023-05-23T11:50:48.318Z,3.22
2023-05-23T11:53:21.087Z,2.70
2023-05-23T11:56:00.456Z,2.57
2023-05-23T11:58:32.401Z,3.12
2023-05-23T12:01:10.130Z,3.10
2023-05-23T12:03:52.941Z,2.70
2023-05-23T12:06:24.740Z,2.70
2023-05-23T12:08:54.922Z,2.47
2023-05-23T12:11:26.187Z,3.03
2023-05-23T12:13:55.865Z,2.60
2023-05-23T12:16:25.764Z,2.42
2023-05-23T12:18:56.569Z,2.30
2023-05-23T12:21:31.720Z,2.77
2023-05-23T12:24:03.452Z,2.73
2023-05-23T12:26:33.287Z,2.77
2023-05-23T12:29:03.921Z,3.35
2023-05-23T12:31:34.929Z,2.87
2023-05-23T12:34:06.518Z,2.80
2023-05-23T12:36:47.947Z,2.77
2023-05-23T12:39:10.501Z,2.67
2023-05-23T12:41:45.836Z,2.70
2023-05-23T12:44:17.098Z,2.70
2023-05-23T12:46:48.185Z,2.43
2023-05-23T12:49:18.147Z,2.00
2023-05-23T12:51:48.340Z,2.60
2023-05-23T12:54:18.945Z,2.02
2023-05-23T12:56:48.546Z,2.55
2023-05-23T12:59:18.416Z,2.23
2023-05-23T13:01:48.315Z,2.43
2023-05-23T13:04:18.222Z,2.42
2023-05-23T13:06:48.092Z,2.40
2023-05-23T13:09:17.946Z,2.37
2023-05-23T13:11:48.172Z,2.60
2023-05-23T13:14:18.055Z,2.92
2023-05-23T13:16:47.907Z,2.23
2023-05-23T13:19:18.120Z,2.70
2023-05-23T13:21:50.000Z,2.67
2023-05-23T13:24:20.114Z,2.36
2023-05-23T13:26:49.672Z,2.55
2023-05-23T13:29:19.542Z,2.47
2023-05-23T13:31:49.280Z,1.90
2023-05-23T13:34:19.286Z,2.10
2023-05-23T13:36:49.217Z,1.93
2023-05-23T13:39:20.537Z,2.00
2023-05-23T13:41:51.580Z,2.80
2023-05-23T13:44:21.440Z,2.20
2023-05-23T13:46:51.370Z,2.40
2023-05-23T13:49:21.316Z,2.17
2023-05-23T13:51:51.211Z,2.40
2023-05-23T13:54:21.362Z,2.97
2023-05-23T13:56:51.225Z,2.33
2023-05-23T13:59:21.256Z,2.80
2023-05-23T14:01:51.246Z,2.50
2023-05-23T14:04:21.269Z,2.97
2023-05-23T14:06:51.487Z,3.13
2023-05-23T14:09:23.208Z,2.40
2023-05-23T14:11:52.865Z,2.37
2023-05-23T14:14:22.806Z,2.45
2023-05-23T14:16:52.798Z,2.03
2023-05-23T14:19:23.296Z,2.13
2023-05-23T14:21:53.147Z,2.23
2023-05-23T14:24:23.000Z,2.33
2023-05-23T14:26:53.095Z,2.63
2023-05-23T14:29:22.947Z,2.67
2023-05-23T14:31:53.106Z,2.23
2023-05-23T14:34:23.018Z,2.13
2023-05-23T14:36:52.871Z,2.13
2023-05-23T14:39:22.789Z,2.27
2023-05-23T14:41:53.013Z,2.20
2023-05-23T14:44:23.024Z,2.53
2023-05-23T14:46:52.946Z,2.63
2023-05-23T14:49:22.781Z,2.47
2023-05-23T14:51:52.719Z,2.27
2023-05-23T14:54:22.556Z,2.52
2023-05-23T14:56:53.447Z,2.50
2023-05-23T14:59:23.443Z,2.30
2023-05-23T15:01:53.480Z,2.70
2023-05-23T15:04:24.218Z,2.42
2023-05-23T15:06:54.301Z,2.20
2023-05-23T15:09:24.540Z,2.80
2023-05-23T15:11:54.952Z,2.40
2023-05-23T15:14:26.421Z,2.80
2023-05-23T15:16:57.149Z,2.37
2023-05-23T15:19:27.047Z,2.70
2023-05-23T15:21:56.885Z,2.60
2023-05-23T15:24:28.463Z,2.63
2023-05-23T15:27:11.680Z,2.23
2023-05-23T15:29:30.101Z,2.40
2023-05-23T15:32:00.211Z,2.30
2023-05-23T15:34:29.797Z,2.33
2023-05-23T15:36:59.637Z,2.40
2023-05-23T15:39:29.797Z,2.83
2023-05-23T15:42:01.117Z,2.27
2023-05-23T15:44:31.013Z,2.23
2023-05-23T15:47:00.888Z,2.60
2023-05-23T15:49:33.419Z,2.43
2023-05-23T15:52:03.291Z,2.80
2023-05-23T15:54:33.510Z,2.30
2023-05-23T15:57:03.364Z,2.53
2023-05-23T15:59:33.216Z,2.27
2023-05-23T16:02:04.733Z,2.00
2023-05-23T16:04:36.097Z,2.60
2023-05-23T16:07:06.540Z,2.40
2023-05-23T16:09:36.680Z,2.40
2023-05-23T16:12:08.448Z,2.40
2023-05-23T16:14:38.323Z,2.07
2023-05-23T16:17:08.218Z,2.30
2023-05-23T16:19:38.156Z,2.90
2023-05-23T16:22:08.895Z,2.70
2023-05-23T16:24:38.761Z,2.60
2023-05-23T16:27:08.723Z,2.13
2023-05-23T16:29:38.577Z,2.10
2023-05-23T16:32:09.968Z,1.87
2023-05-23T16:34:39.855Z,2.30
2023-05-23T16:37:09.768Z,2.30
2023-05-23T16:39:39.625Z,2.67
2023-05-23T16:42:10.093Z,2.27
2023-05-23T16:44:39.978Z,1.97
2023-05-23T16:47:09.916Z,1.87
2023-05-23T16:49:39.761Z,2.30
2023-05-23T16:52:10.448Z,1.73
2023-05-23T16:54:40.285Z,2.27
2023-05-23T16:57:10.524Z,1.77
2023-05-23T16:59:41.043Z,2.30
2023-05-23T17:02:12.596Z,1.90
2023-05-23T17:04:42.481Z,2.10
2023-05-23T17:07:12.372Z,2.00
2023-05-23T17:09:42.472Z,2.40
2023-05-23T17:12:13.248Z,2.12
2023-05-23T17:14:43.078Z,2.33
2023-05-23T17:17:12.910Z,2.20
2023-05-23T17:19:42.856Z,2.17
2023-05-23T17:22:13.333Z,1.70
2023-05-23T17:24:43.227Z,1.57
2023-05-23T17:27:13.027Z,2.20
2023-05-23T17:29:42.978Z,1.97
2023-05-23T17:32:13.309Z,1.67
2023-05-23T17:34:44.164Z,2.00
2023-05-23T17:37:15.081Z,2.43
2023-05-23T17:39:45.016Z,2.57
2023-05-23T17:42:14.786Z,2.03
2023-05-23T17:44:44.526Z,2.30
2023-05-23T17:47:14.434Z,2.17
2023-05-23T17:49:44.352Z,2.00
2023-05-23T17:52:15.049Z,2.00
2023-05-23T17:54:45.036Z,2.27
2023-05-23T17:57:16.038Z,2.00
2023-05-23T17:59:45.925Z,2.67
2023-05-23T18:02:15.821Z,1.60
2023-05-23T18:04:45.770Z,1.80
2023-05-23T18:07:17.957Z,2.00
2023-05-23T18:09:48.582Z,2.43
2023-05-23T18:12:18.504Z,2.17
2023-05-23T18:14:49.390Z,2.05
2023-05-23T18:17:19.643Z,2.53
2023-05-23T18:19:49.602Z,2.70
2023-05-23T18:22:20.728Z,1.67
2023-05-23T18:24:50.645Z,2.13
2023-05-23T18:27:20.271Z,1.85
2023-05-23T18:29:50.209Z,2.27
2023-05-23T18:32:20.773Z,2.00
2023-05-23T18:34:50.624Z,2.60
2023-05-23T18:37:20.573Z,1.80
2023-05-23T18:39:50.722Z,2.02
2023-05-23T18:42:20.567Z,1.70
2023-05-23T18:44:50.720Z,2.35
2023-05-23T18:47:20.587Z,2.37
2023-05-23T18:49:50.253Z,2.00
2023-05-23T18:52:20.163Z,2.15
2023-05-23T18:54:53.500Z,2.30
2023-05-23T18:57:23.704Z,2.05
2023-05-23T18:59:53.906Z,1.98
2023-05-23T19:02:23.795Z,2.53
2023-05-23T19:04:53.861Z,1.93
2023-05-23T19:07:23.699Z,2.30
2023-05-23T19:09:53.640Z,1.87
2023-05-23T19:12:23.201Z,1.80
2023-05-23T19:14:53.303Z,2.10
2023-05-23T19:17:23.155Z,2.30
2023-05-23T19:19:52.996Z,1.90
2023-05-23T19:22:22.895Z,2.17
2023-05-23T19:24:52.730Z,2.10
2023-05-23T19:27:22.375Z,2.20
2023-05-23T19:29:52.221Z,2.13
2023-05-23T19:32:22.224Z,2.03
2023-05-23T19:34:52.414Z,2.47
2023-05-23T19:37:22.552Z,2.03
2023-05-23T19:39:52.384Z,2.13
2023-05-23T19:42:22.315Z,1.93
2023-05-23T19:44:52.261Z,2.83
2023-05-23T19:47:22.174Z,1.60
2023-05-23T19:49:52.117Z,2.40
2023-05-23T19:52:21.654Z,1.90
2023-05-23T19:54:51.466Z,1.72
2023-05-23T19:57:21.637Z,2.12
2023-05-23T19:59:51.855Z,2.20
2023-05-23T20:02:22.071Z,2.05
2023-05-23T20:04:51.899Z,1.90
2023-05-23T20:07:22.033Z,1.80
2023-05-23T20:09:52.050Z,2.30
2023-05-23T20:12:21.593Z,2.07
2023-05-23T20:14:51.822Z,2.30
2023-05-23T20:17:22.070Z,1.70
2023-05-23T20:19:51.941Z,2.07
2023-05-23T20:22:21.576Z,1.90
2023-05-23T20:24:51.400Z,2.27
2023-05-23T20:27:21.653Z,2.87
2023-05-23T20:29:52.233Z,3.02
2023-05-23T20:32:22.073Z,2.30
2023-05-23T20:34:51.922Z,2.30
2023-05-23T20:37:21.776Z,2.87
2023-05-23T20:39:52.301Z,2.30
2023-05-23T20:42:22.517Z,2.62
2023-05-23T20:44:52.691Z,2.20
2023-05-23T20:47:22.271Z,2.65
2023-05-23T20:49:52.149Z,2.90
2023-05-23T20:52:22.838Z,2.00
2023-05-23T20:54:54.450Z,2.20
2023-05-23T20:57:24.291Z,2.57
2023-05-23T20:59:54.161Z,2.30
2023-05-23T21:02:23.899Z,2.37
2023-05-23T21:04:53.903Z,2.20
2023-05-23T21:07:23.761Z,2.10
2023-05-23T21:09:53.597Z,2.17
2023-05-23T21:12:23.264Z,2.50
2023-05-23T21:14:53.258Z,2.30
2023-05-23T21:17:23.219Z,2.20
2023-05-23T21:19:53.153Z,2.37
2023-05-23T21:22:22.992Z,2.58
2023-05-23T21:24:52.877Z,3.07
2023-05-23T21:27:22.776Z,2.20
2023-05-23T21:29:52.793Z,2.20
2023-05-23T21:32:23.376Z,2.30
2023-05-23T21:34:53.973Z,2.55
2023-05-23T21:37:23.883Z,2.50
2023-05-23T21:39:53.694Z,2.60
2023-05-23T21:42:24.709Z,2.60
2023-05-23T21:44:54.525Z,2.57
2023-05-23T21:47:25.124Z,2.33
2023-05-23T21:49:55.069Z,2.60
2023-05-23T21:52:24.620Z,2.47
2023-05-23T21:54:54.761Z,2.50
2023-05-23T21:57:24.609Z,2.30
2023-05-23T21:59:54.212Z,2.30
2023-05-23T22:02:24.332Z,2.35
2023-05-23T22:04:54.262Z,2.50
2023-05-23T22:07:25.769Z,2.67
2023-05-23T22:09:56.254Z,2.53
2023-05-23T22:12:26.137Z,2.30
2023-05-23T22:14:57.061Z,3.10
2023-05-23T22:17:27.004Z,2.63
2023-05-23T22:19:58.017Z,2.40
2023-05-23T22:22:28.060Z,3.03
2023-05-23T22:24:57.908Z,3.07
2023-05-23T22:27:27.987Z,3.57
2023-05-23T22:29:57.883Z,3.60
2023-05-23T22:32:27.760Z,2.92
2023-05-23T22:34:57.666Z,2.30
2023-05-23T22:37:27.287Z,2.80
2023-05-23T22:39:57.194Z,2.30
2023-05-23T22:42:26.741Z,2.67
2023-05-23T22:44:56.725Z,2.47
2023-05-23T22:47:28.118Z,2.50
2023-05-23T22:49:59.444Z,2.30
2023-05-23T22:52:31.182Z,2.45
2023-05-23T22:55:01.246Z,2.57
2023-05-23T22:57:31.113Z,2.77
2023-05-23T23:00:01.078Z,1.93
2023-05-23T23:02:31.107Z,2.03
2023-05-23T23:05:01.060Z,2.63
2023-05-23T23:07:30.882Z,2.93
2023-05-23T23:10:00.791Z,2.13
2023-05-23T23:12:30.715Z,2.70
2023-05-23T23:15:00.565Z,2.53
2023-05-23T23:17:30.227Z,2.35
2023-05-23T23:20:00.239Z,2.30
2023-05-23T23:22:30.092Z,2.30
2023-05-23T23:25:00.131Z,2.57
2023-05-23T23:27:31.535Z,2.43
2023-05-23T23:30:01.441Z,2.37
2023-05-23T23:32:33.978Z,2.75
2023-05-23T23:35:03.383Z,2.50
2023-05-23T23:37:33.234Z,2.80
2023-05-23T23:40:03.428Z,2.87
2023-05-23T23:42:33.596Z,2.35
2023-05-23T23:45:03.761Z,2.87
2023-05-23T23:47:33.729Z,3.00
2023-05-23T23:50:05.197Z,2.52
2023-05-23T23:52:37.253Z,2.90
2023-05-23T23:55:07.726Z,2.27
2023-05-23T23:57:37.566Z,3.50
